createdAt,value
2023-01-11T00:03:36.658Z,8.50
2023-01-11T00:07:40.136Z,8.50
2023-01-11T00:11:41.753Z,8.50
2023-01-11T00:15:43.478Z,8.50
2023-01-11T00:19:45.152Z,8.60
2023-01-11T00:23:48.589Z,8.60
2023-01-11T00:27:50.317Z,8.60
2023-01-11T00:31:53.373Z,8.70
2023-01-11T00:35:54.995Z,8.70
2023-01-11T00:39:56.660Z,8.80
2023-01-11T00:44:17.035Z,8.70
2023-01-11T00:48:18.693Z,8.70
2023-01-11T00:52:21.414Z,8.70
2023-01-11T00:56:22.980Z,8.80
2023-01-11T01:00:24.721Z,8.80
2023-01-11T01:04:26.327Z,8.90
2023-01-11T01:08:27.903Z,9.00
2023-01-11T01:12:48.377Z,9.00
2023-01-11T01:16:50.281Z,9.00
2023-01-11T01:20:51.859Z,9.10
2023-01-11T01:24:53.480Z,9.10
2023-01-11T01:28:55.122Z,9.10
2023-01-11T01:32:56.728Z,9.10
2023-01-11T01:36:58.300Z,9.20
2023-01-11T01:40:59.958Z,9.20
2023-01-11T01:45:01.615Z,9.20
2023-01-11T01:49:09.158Z,9.40
2023-01-11T01:53:15.877Z,9.40
2023-01-11T01:57:19.328Z,9.50
2023-01-11T02:01:39.831Z,9.40
2023-01-11T02:05:41.468Z,9.40
2023-01-11T02:10:01.845Z,9.40
2023-01-11T02:14:06.450Z,9.50
2023-01-11T02:18:12.756Z,9.50
2023-01-11T02:22:22.235Z,9.40
2023-01-11T02:26:23.859Z,9.50
2023-01-11T02:30:30.571Z,9.50
2023-01-11T02:34:35.262Z,9.60
2023-01-11T02:38:46.309Z,9.60
2023-01-11T02:43:11.575Z,9.70
2023-01-11T02:47:28.788Z,9.80
2023-01-11T02:51:52.896Z,9.80
2023-01-11T02:55:57.118Z,9.90
2023-01-11T02:59:59.337Z,10.00
2023-01-11T03:04:01.239Z,10.00
2023-01-11T03:08:09.098Z,10.00
2023-01-11T03:12:52.068Z,10.00
2023-01-11T03:17:12.040Z,10.00
2023-01-11T03:21:22.005Z,9.90
2023-01-11T03:25:31.174Z,9.90
2023-01-11T03:29:39.491Z,10.00
2023-01-11T03:34:04.384Z,10.10
2023-01-11T03:38:15.085Z,10.10
2023-01-11T03:42:19.296Z,10.10
2023-01-11T03:46:23.434Z,10.10
2023-01-11T03:50:25.859Z,10.10
2023-01-11T03:54:28.043Z,10.10
2023-01-11T03:58:29.690Z,10.10
2023-01-11T04:02:35.551Z,10.10
2023-01-11T04:06:37.838Z,10.10
2023-01-11T04:10:39.465Z,10.10
2023-01-11T04:14:41.032Z,10.00
2023-01-11T04:18:42.705Z,10.00
2023-01-11T04:22:44.321Z,10.00
2023-01-11T04:26:45.930Z,10.00
2023-01-11T04:30:49.375Z,10.00
2023-01-11T04:34:51.043Z,10.10
2023-01-11T04:38:52.615Z,10.10
2023-01-11T04:42:54.225Z,10.10
2023-01-11T04:46:55.818Z,10.10
2023-01-11T04:50:57.642Z,10.20
2023-01-11T04:54:59.200Z,10.10
2023-01-11T04:59:00.718Z,10.20
2023-01-11T05:03:02.292Z,10.20
2023-01-11T05:07:03.970Z,10.20
2023-01-11T05:11:07.047Z,10.20
2023-01-11T05:15:08.998Z,10.20
2023-01-11T05:19:11.795Z,10.20
2023-01-11T05:23:13.348Z,10.20
2023-01-11T05:27:14.915Z,10.20
2023-01-11T05:31:17.008Z,10.20
2023-01-11T05:35:18.598Z,10.20
2023-01-11T05:39:20.291Z,10.30
2023-01-11T05:43:21.858Z,10.40
2023-01-11T05:47:23.499Z,10.40
2023-01-11T05:51:30.514Z,10.40
2023-01-11T05:55:32.139Z,10.30
2023-01-11T05:59:36.568Z,10.30
2023-01-11T06:03:38.102Z,10.30
2023-01-11T06:07:40.084Z,10.40
2023-01-11T06:11:41.731Z,10.40
2023-01-11T06:15:43.742Z,10.40
2023-01-11T06:19:45.395Z,10.50
2023-01-11T06:23:48.382Z,10.40
2023-01-11T06:27:49.942Z,10.40
2023-01-11T06:31:51.518Z,10.50
2023-01-11T06:35:53.443Z,10.40
2023-01-11T06:39:55.415Z,10.40
2023-01-11T06:43:57.015Z,10.40
2023-01-11T06:47:58.620Z,10.40
2023-01-11T06:52:00.179Z,10.40
2023-01-11T06:56:01.771Z,10.30
2023-01-11T07:00:03.734Z,10.40
2023-01-11T07:04:05.547Z,10.30
2023-01-11T07:08:07.200Z,10.30
2023-01-11T07:12:08.781Z,10.30
2023-01-11T07:16:10.468Z,10.30
2023-01-11T07:20:12.196Z,10.30
2023-01-11T07:24:13.940Z,10.30
2023-01-11T07:28:15.563Z,10.20
2023-01-11T07:32:17.177Z,10.20
2023-01-11T07:36:18.773Z,10.20
2023-01-11T07:40:20.471Z,10.10
2023-01-11T07:44:22.074Z,10.20
2023-01-11T07:48:26.135Z,10.20
2023-01-11T07:52:27.757Z,10.20
2023-01-11T07:56:32.392Z,10.10
2023-01-11T08:00:33.989Z,10.10
2023-01-11T08:04:35.592Z,10.10
2023-01-11T08:08:37.426Z,10.00
2023-01-11T08:13:05.098Z,10.10
2023-01-11T08:17:11.647Z,10.10
2023-01-11T08:21:14.802Z,10.10
2023-01-11T08:25:16.541Z,10.00
2023-01-11T08:29:18.237Z,10.00
2023-01-11T08:33:19.957Z,10.00
2023-01-11T08:37:21.872Z,10.00
2023-01-11T08:41:24.113Z,10.00
2023-01-11T08:45:25.821Z,10.00
2023-01-11T08:49:27.413Z,10.00
2023-01-11T08:53:31.366Z,10.00
2023-01-11T08:57:34.251Z,9.90
2023-01-11T09:01:35.935Z,9.90
2023-01-11T09:05:38.017Z,9.90
2023-01-11T09:09:39.699Z,9.90
2023-01-11T09:13:41.317Z,9.90
2023-01-11T09:17:42.913Z,9.90
2023-01-11T09:21:46.940Z,9.90
2023-01-11T09:25:48.536Z,9.90
2023-01-11T09:29:50.211Z,10.00
2023-01-11T09:33:51.970Z,9.90
2023-01-11T09:37:58.373Z,9.90
2023-01-11T09:42:06.261Z,10.00
2023-01-11T09:46:09.049Z,9.90
2023-01-11T09:50:28.245Z,10.00
2023-01-11T09:54:29.930Z,10.00
2023-01-11T09:58:41.976Z,10.00
2023-01-11T10:02:54.238Z,10.00
2023-01-11T10:07:02.505Z,9.90
2023-01-11T10:18:26.733Z,9.60
2023-01-11T10:20:24.751Z,9.60
2023-01-11T10:24:29.405Z,9.50
2023-01-11T10:28:35.975Z,9.60
2023-01-11T10:32:48.061Z,9.50
2023-01-11T10:37:18.166Z,9.50
2023-01-11T10:41:35.890Z,9.60
2023-01-11T10:45:51.935Z,9.50
2023-01-11T10:49:55.038Z,9.40
2023-01-11T10:54:10.788Z,9.50
2023-01-11T10:58:38.846Z,9.50
2023-01-11T11:02:40.449Z,9.50
2023-01-11T11:06:48.215Z,9.50
2023-01-11T11:10:59.168Z,9.50
2023-01-11T11:15:08.302Z,9.60
2023-01-11T11:19:11.845Z,9.60
2023-01-11T11:23:17.972Z,9.70
2023-01-11T11:27:28.686Z,9.70
2023-01-11T11:31:30.954Z,9.50
2023-01-11T11:35:37.336Z,9.50
2023-01-11T11:39:39.619Z,9.40
2023-01-11T11:43:42.005Z,9.40
2023-01-11T11:47:44.635Z,9.20
2023-01-11T11:51:47.024Z,9.30
2023-01-11T11:55:49.067Z,9.10
2023-01-11T11:59:53.582Z,9.20
2023-01-11T12:03:57.298Z,9.10
2023-01-11T12:07:59.682Z,9.10
2023-01-11T12:12:01.542Z,9.10
2023-01-11T12:16:22.917Z,9.00
2023-01-11T12:20:27.096Z,9.00
2023-01-11T12:24:28.762Z,9.00
2023-01-11T12:28:50.612Z,9.10
2023-01-11T12:33:11.101Z,9.00
2023-01-11T12:37:12.655Z,9.00
2023-01-11T12:41:43.653Z,8.90
2023-01-11T12:46:08.451Z,8.90
2023-01-11T12:50:16.107Z,8.80
2023-01-11T12:54:30.483Z,8.70
2023-01-11T12:58:40.128Z,8.80
2023-01-11T13:03:00.443Z,8.70
2023-01-11T13:07:02.056Z,8.70
2023-01-11T13:11:35.054Z,8.70
2023-01-11T13:15:55.654Z,8.70
2023-01-11T13:20:15.706Z,8.70
2023-01-11T13:24:19.952Z,8.90
2023-01-11T13:28:29.406Z,9.00
2023-01-11T13:32:37.530Z,9.10
2023-01-11T13:36:42.736Z,9.20
2023-01-11T13:40:48.412Z,9.40
2023-01-11T13:44:53.381Z,9.40
2023-01-11T13:49:21.401Z,9.60
2023-01-11T13:53:31.692Z,9.70
2023-01-11T13:57:39.100Z,9.80
2023-01-11T14:01:44.498Z,9.80
2023-01-11T14:05:56.427Z,9.80
2023-01-11T14:10:13.581Z,9.70
2023-01-11T14:14:36.538Z,9.70
2023-01-11T14:18:39.927Z,9.70
2023-01-11T14:22:45.433Z,9.70
2023-01-11T14:26:53.058Z,9.60
2023-01-11T14:31:14.392Z,9.50
2023-01-11T14:35:15.919Z,9.50
2023-01-11T14:39:17.496Z,9.30
2023-01-11T14:43:19.091Z,9.30
2023-01-11T14:47:20.763Z,9.20
2023-01-11T14:51:32.593Z,9.20
2023-01-11T14:55:45.230Z,9.10
2023-01-11T14:59:46.789Z,9.10
2023-01-11T15:03:49.127Z,8.90
2023-01-11T15:07:50.759Z,8.90
2023-01-11T15:11:52.408Z,8.80
2023-01-11T15:16:24.825Z,8.80
2023-01-11T15:20:26.828Z,8.70
2023-01-11T15:24:34.056Z,8.70
2023-01-11T15:28:50.118Z,8.70
2023-01-11T15:32:51.694Z,8.70
2023-01-11T15:36:55.177Z,8.70
2023-01-11T15:41:18.223Z,8.50
2023-01-11T15:45:38.492Z,8.50
2023-01-11T15:49:40.037Z,8.40
2023-01-11T15:53:41.619Z,8.40
2023-01-11T15:57:56.754Z,8.20
2023-01-11T16:02:04.508Z,8.20
2023-01-11T16:06:06.375Z,8.10
2023-01-11T16:10:27.608Z,8.10
2023-01-11T16:14:39.710Z,8.00
2023-01-11T16:18:46.748Z,7.90
2023-01-11T16:22:53.420Z,7.80
2023-01-11T16:26:56.372Z,7.70
2023-01-11T16:31:00.129Z,7.70
2023-01-11T16:35:02.376Z,7.70
2023-01-11T16:39:13.573Z,7.70
2023-01-11T16:43:18.233Z,7.70
2023-01-11T16:47:20.677Z,7.70
2023-01-11T16:51:22.360Z,7.70
2023-01-11T16:55:25.875Z,7.60
2023-01-11T16:59:30.808Z,7.70
2023-01-11T17:03:32.376Z,7.70
2023-01-11T17:07:34.017Z,7.70
2023-01-11T17:11:37.460Z,7.60
2023-01-11T17:15:52.097Z,7.50
2023-01-11T17:19:55.206Z,7.50
2023-01-11T17:24:01.477Z,7.60
2023-01-11T17:28:04.944Z,7.60
2023-01-11T17:32:08.349Z,7.60
2023-01-11T17:36:10.080Z,7.60
2023-01-11T17:40:26.875Z,7.50
2023-01-11T17:44:47.158Z,7.40
2023-01-11T17:49:11.489Z,7.40
2023-01-11T17:53:13.148Z,7.30
2023-01-11T17:57:14.759Z,7.30
2023-01-11T18:01:19.858Z,7.30
2023-01-11T18:05:25.574Z,7.30
2023-01-11T18:09:29.313Z,7.30
2023-01-11T18:13:34.485Z,7.40
2023-01-11T18:17:39.006Z,7.40
2023-01-11T18:21:48.575Z,7.30
2023-01-11T18:25:50.331Z,7.30
2023-01-11T18:29:52.897Z,7.30
2023-01-11T18:33:54.455Z,7.30
2023-01-11T18:37:56.311Z,7.40
2023-01-11T18:42:07.195Z,7.40
2023-01-11T18:46:09.165Z,7.30
2023-01-11T18:50:12.341Z,7.30
2023-01-11T18:54:15.503Z,7.30
2023-01-11T18:58:17.235Z,7.30
2023-01-11T19:06:22.714Z,7.30
2023-01-11T19:10:24.317Z,7.40
2023-01-11T19:14:25.859Z,7.40
2023-01-11T19:18:29.148Z,7.30
2023-01-11T19:22:33.915Z,7.40
2023-01-11T19:26:35.451Z,7.30
2023-01-11T19:30:38.657Z,7.30
2023-01-11T19:34:40.268Z,7.30
2023-01-11T19:38:41.816Z,7.40
2023-01-11T19:42:43.349Z,7.30
2023-01-11T19:46:46.847Z,7.40
2023-01-11T19:50:48.506Z,7.40
2023-01-11T19:54:51.159Z,7.30
2023-01-11T19:58:52.683Z,7.30
2023-01-11T20:02:54.268Z,7.40
2023-01-11T20:06:56.500Z,7.30
2023-01-11T20:11:03.370Z,7.40
2023-01-11T20:15:05.138Z,7.30
2023-01-11T20:19:06.759Z,7.20
2023-01-11T20:23:08.339Z,7.20
2023-01-11T20:27:09.977Z,7.20
2023-01-11T20:31:11.700Z,7.20
2023-01-11T20:35:13.277Z,7.30
2023-01-11T20:39:14.830Z,7.40
2023-01-11T20:43:17.358Z,7.40
2023-01-11T20:47:18.913Z,7.40
2023-01-11T20:51:20.547Z,7.40
2023-01-11T20:55:22.108Z,7.50
2023-01-11T20:59:23.625Z,7.50
2023-01-11T21:03:25.208Z,7.50
2023-01-11T21:07:26.781Z,7.60
2023-01-11T21:11:28.734Z,7.60
2023-01-11T21:15:30.292Z,7.60
2023-01-11T21:19:31.932Z,7.60
2023-01-11T21:23:33.468Z,7.70
2023-01-11T21:27:35.018Z,7.70
2023-01-11T21:31:36.778Z,7.80
2023-01-11T21:35:38.391Z,7.90
2023-01-11T21:39:39.927Z,7.90
2023-01-11T21:43:44.914Z,7.90
2023-01-11T21:47:46.446Z,8.00
2023-01-11T21:51:48.016Z,8.10
2023-01-11T21:55:49.781Z,7.90
2023-01-11T21:59:51.341Z,8.00
2023-01-11T22:03:52.988Z,8.00
2023-01-11T22:07:56.007Z,7.90
2023-01-11T22:11:57.717Z,7.90
2023-01-11T22:16:00.591Z,7.80
2023-01-11T22:20:02.305Z,7.80
2023-01-11T22:24:04.961Z,7.70
2023-01-11T22:28:06.500Z,7.80
2023-01-11T22:32:08.046Z,7.80
2023-01-11T22:36:09.622Z,7.90
2023-01-11T22:40:11.526Z,7.90
2023-01-11T22:44:13.746Z,7.90
2023-01-11T22:48:15.265Z,7.90
2023-01-11T22:52:17.559Z,7.90
2023-01-11T22:56:19.957Z,7.90
2023-01-11T23:00:21.714Z,7.90
2023-01-11T23:04:23.381Z,8.00
2023-01-11T23:08:24.959Z,8.00
2023-01-11T23:12:45.287Z,8.00
2023-01-11T23:16:47.437Z,8.00
2023-01-11T23:20:49.046Z,8.10
2023-01-11T23:24:50.707Z,8.10
2023-01-11T23:28:52.250Z,8.00
2023-01-11T23:32:53.841Z,8.00
2023-01-11T23:36:55.596Z,8.00
2023-01-11T23:41:15.530Z,8.00
2023-01-11T23:45:17.050Z,8.00
2023-01-11T23:49:18.723Z,7.90
2023-01-11T23:53:23.033Z,7.90
2023-01-11T23:57:25.404Z,7.90
